sensor_id;sensor_type;location;lat;lon;timestamp;P1;durP1;ratioP1;P2;durP2;ratioP2
8568;SDS011;4322;51.104;-4.162;2023-02-17T00:00:51;17.07;;;16.17;;
8568;SDS011;4322;51.104;-4.162;2023-02-17T00:03:20;17.00;;;16.10;;
8568;SDS011;4322;51.104;-4.162;2023-02-17T00:05:50;17.07;;;16.17;;
8568;SDS011;4322;51.104;-4.162;2023-02-17T00:08:20;16.93;;;16.03;;
8568;SDS011;4322;51.104;-4.162;2023-02-17T00:10:55;16.77;;;15.87;;
8568;SDS011;4322;51.104;-4.162;2023-02-17T00:13:23;16.00;;;15.10;;
8568;SDS011;4322;51.104;-4.162;2023-02-17T00:15:51;15.93;;;15.03;;
8568;SDS011;4322;51.104;-4.162;2023-02-17T00:18:20;16.20;;;15.30;;
8568;SDS011;4322;51.104;-4.162;2023-02-17T00:20:48;16.23;;;15.33;;
8568;SDS011;4322;51.104;-4.162;2023-02-17T00:23:16;16.23;;;15.33;;
8568;SDS011;4322;51.104;-4.162;2023-02-17T00:25:44;15.93;;;15.03;;
8568;SDS011;4322;51.104;-4.162;2023-02-17T00:28:11;15.87;;;14.97;;
8568;SDS011;4322;51.104;-4.162;2023-02-17T00:30:39;15.87;;;14.97;;
8568;SDS011;4322;51.104;-4.162;2023-02-17T00:33:07;16.00;;;15.10;;
8568;SDS011;4322;51.104;-4.162;2023-02-17T00:35:39;15.90;;;15.00;;
8568;SDS011;4322;51.104;-4.162;2023-02-17T00:38:07;15.40;;;14.60;;
8568;SDS011;4322;51.104;-4.162;2023-02-17T00:40:35;16.70;;;15.80;;
8568;SDS011;4322;51.104;-4.162;2023-02-17T00:43:04;14.97;;;14.17;;
8568;SDS011;4322;51.104;-4.162;2023-02-17T00:45:32;13.60;;;12.90;;
8568;SDS011;4322;51.104;-4.162;2023-02-17T00:47:59;9.83;;;9.33;;
8568;SDS011;4322;51.104;-4.162;2023-02-17T00:50:27;7.23;;;6.93;;
8568;SDS011;4322;51.104;-4.162;2023-02-17T00:52:56;6.77;;;6.47;;
8568;SDS011;4322;51.104;-4.162;2023-02-17T00:55:24;6.53;;;6.23;;
8568;SDS011;4322;51.104;-4.162;2023-02-17T00:57:52;6.00;;;5.70;;
8568;SDS011;4322;51.104;-4.162;2023-02-17T01:00:20;6.50;;;6.20;;
8568;SDS011;4322;51.104;-4.162;2023-02-17T01:02:48;6.10;;;5.80;;
8568;SDS011;4322;51.104;-4.162;2023-02-17T01:05:16;6.17;;;5.87;;
8568;SDS011;4322;51.104;-4.162;2023-02-17T01:07:43;6.27;;;5.97;;
8568;SDS011;4322;51.104;-4.162;2023-02-17T01:10:13;7.17;;;6.87;;
8568;SDS011;4322;51.104;-4.162;2023-02-17T01:12:41;6.10;;;5.80;;
8568;SDS011;4322;51.104;-4.162;2023-02-17T01:15:08;6.33;;;6.03;;
8568;SDS011;4322;51.104;-4.162;2023-02-17T01:17:36;6.40;;;6.10;;
8568;SDS011;4322;51.104;-4.162;2023-02-17T01:20:05;5.90;;;5.60;;
8568;SDS011;4322;51.104;-4.162;2023-02-17T01:22:33;6.33;;;6.03;;
8568;SDS011;4322;51.104;-4.162;2023-02-17T01:25:01;5.77;;;5.57;;
8568;SDS011;4322;51.104;-4.162;2023-02-17T01:27:30;6.23;;;5.93;;
8568;SDS011;4322;51.104;-4.162;2023-02-17T01:29:58;6.20;;;5.90;;
8568;SDS011;4322;51.104;-4.162;2023-02-17T01:32:26;7.03;;;6.73;;
8568;SDS011;4322;51.104;-4.162;2023-02-17T01:34:54;8.17;;;7.77;;
8568;SDS011;4322;51.104;-4.162;2023-02-17T01:37:22;13.57;;;12.87;;
8568;SDS011;4322;51.104;-4.162;2023-02-17T01:39:49;15.30;;;14.50;;
8568;SDS011;4322;51.104;-4.162;2023-02-17T01:42:18;15.67;;;14.87;;
8568;SDS011;4322;51.104;-4.162;2023-02-17T01:47:34;14.80;;;14.00;;
8568;SDS011;4322;51.104;-4.162;2023-02-17T01:50:01;15.40;;;14.60;;
8568;SDS011;4322;51.104;-4.162;2023-02-17T01:52:29;15.43;;;14.63;;
8568;SDS011;4322;51.104;-4.162;2023-02-17T01:54:58;15.67;;;14.87;;
8568;SDS011;4322;51.104;-4.162;2023-02-17T01:57:28;15.47;;;14.67;;
8568;SDS011;4322;51.104;-4.162;2023-02-17T01:59:56;15.40;;;14.60;;
8568;SDS011;4322;51.104;-4.162;2023-02-17T02:02:24;14.80;;;14.00;;
8568;SDS011;4322;51.104;-4.162;2023-02-17T02:04:55;14.20;;;13.50;;
8568;SDS011;4322;51.104;-4.162;2023-02-17T02:07:24;14.23;;;13.53;;
8568;SDS011;4322;51.104;-4.162;2023-02-17T02:09:54;12.27;;;11.67;;
8568;SDS011;4322;51.104;-4.162;2023-02-17T02:12:23;12.37;;;11.77;;
8568;SDS011;4322;51.104;-4.162;2023-02-17T02:14:51;10.73;;;10.23;;
8568;SDS011;4322;51.104;-4.162;2023-02-17T02:17:22;7.80;;;7.40;;
8568;SDS011;4322;51.104;-4.162;2023-02-17T02:20:02;7.20;;;6.90;;
8568;SDS011;4322;51.104;-4.162;2023-02-17T02:22:39;7.00;;;6.70;;
8568;SDS011;4322;51.104;-4.162;2023-02-17T02:25:20;6.60;;;6.30;;
8568;SDS011;4322;51.104;-4.162;2023-02-17T02:27:54;7.10;;;6.80;;
8568;SDS011;4322;51.104;-4.162;2023-02-17T02:30:32;7.80;;;7.40;;
8568;SDS011;4322;51.104;-4.162;2023-02-17T02:33:12;7.30;;;7.00;;
8568;SDS011;4322;51.104;-4.162;2023-02-17T02:35:43;7.47;;;7.17;;
8568;SDS011;4322;51.104;-4.162;2023-02-17T02:38:13;7.83;;;7.43;;
8568;SDS011;4322;51.104;-4.162;2023-02-17T02:40:43;8.37;;;7.97;;
8568;SDS011;4322;51.104;-4.162;2023-02-17T02:43:12;8.43;;;8.03;;
8568;SDS011;4322;51.104;-4.162;2023-02-17T02:45:41;6.77;;;6.47;;
8568;SDS011;4322;51.104;-4.162;2023-02-17T02:48:08;6.77;;;6.47;;
8568;SDS011;4322;51.104;-4.162;2023-02-17T02:50:44;9.30;;;8.90;;
8568;SDS011;4322;51.104;-4.162;2023-02-17T02:53:22;8.73;;;8.33;;
8568;SDS011;4322;51.104;-4.162;2023-02-17T02:55:56;8.43;;;8.03;;
8568;SDS011;4322;51.104;-4.162;2023-02-17T02:58:26;7.83;;;7.43;;
8568;SDS011;4322;51.104;-4.162;2023-02-17T03:00:57;7.83;;;7.43;;
8568;SDS011;4322;51.104;-4.162;2023-02-17T03:03:27;8.60;;;8.20;;
8568;SDS011;4322;51.104;-4.162;2023-02-17T03:05:58;9.83;;;9.33;;
8568;SDS011;4322;51.104;-4.162;2023-02-17T03:08:30;10.63;;;10.13;;
8568;SDS011;4322;51.104;-4.162;2023-02-17T03:11:03;11.50;;;10.90;;
8568;SDS011;4322;51.104;-4.162;2023-02-17T03:13:31;10.60;;;10.10;;
8568;SDS011;4322;51.104;-4.162;2023-02-17T03:15:59;10.67;;;10.17;;
8568;SDS011;4322;51.104;-4.162;2023-02-17T03:18:27;9.80;;;9.30;;
8568;SDS011;4322;51.104;-4.162;2023-02-17T03:21:00;11.20;;;10.70;;
8568;SDS011;4322;51.104;-4.162;2023-02-17T03:23:28;12.07;;;11.47;;
8568;SDS011;4322;51.104;-4.162;2023-02-17T03:25:56;12.97;;;12.37;;
8568;SDS011;4322;51.104;-4.162;2023-02-17T03:28:25;12.37;;;11.77;;
8568;SDS011;4322;51.104;-4.162;2023-02-17T03:30:52;11.83;;;11.23;;
8568;SDS011;4322;51.104;-4.162;2023-02-17T03:33:20;13.20;;;12.50;;
8568;SDS011;4322;51.104;-4.162;2023-02-17T03:35:48;12.87;;;12.23;;
8568;SDS011;4322;51.104;-4.162;2023-02-17T03:38:17;11.97;;;11.37;;
8568;SDS011;4322;51.104;-4.162;2023-02-17T03:40:45;12.57;;;11.97;;
8568;SDS011;4322;51.104;-4.162;2023-02-17T03:43:12;12.43;;;11.83;;
8568;SDS011;4322;51.104;-4.162;2023-02-17T03:45:43;11.67;;;11.07;;
8568;SDS011;4322;51.104;-4.162;2023-02-17T03:48:10;12.33;;;11.73;;
8568;SDS011;4322;51.104;-4.162;2023-02-17T03:50:38;12.23;;;11.63;;
8568;SDS011;4322;51.104;-4.162;2023-02-17T03:53:06;12.20;;;11.60;;
8568;SDS011;4322;51.104;-4.162;2023-02-17T03:55:35;12.20;;;11.60;;
8568;SDS011;4322;51.104;-4.162;2023-02-17T03:58:03;12.33;;;11.73;;
8568;SDS011;4322;51.104;-4.162;2023-02-17T04:00:31;11.90;;;11.30;;
8568;SDS011;4322;51.104;-4.162;2023-02-17T04:02:58;12.70;;;12.00;;
8568;SDS011;4322;51.104;-4.162;2023-02-17T04:05:26;13.17;;;12.47;;
8568;SDS011;4322;51.104;-4.162;2023-02-17T04:07:54;13.07;;;12.37;;
8568;SDS011;4322;51.104;-4.162;2023-02-17T04:10:22;13.47;;;12.77;;
8568;SDS011;4322;51.104;-4.162;2023-02-17T04:12:51;13.10;;;12.40;;
8568;SDS011;4322;51.104;-4.162;2023-02-17T04:15:19;13.10;;;12.40;;
8568;SDS011;4322;51.104;-4.162;2023-02-17T04:17:47;13.20;;;12.50;;
8568;SDS011;4322;51.104;-4.162;2023-02-17T04:20:14;13.27;;;12.57;;
8568;SDS011;4322;51.104;-4.162;2023-02-17T04:22:42;13.27;;;12.57;;
8568;SDS011;4322;51.104;-4.162;2023-02-17T04:25:11;13.20;;;12.50;;
8568;SDS011;4322;51.104;-4.162;2023-02-17T04:27:39;12.10;;;11.50;;
8568;SDS011;4322;51.104;-4.162;2023-02-17T04:30:12;12.57;;;11.97;;
8568;SDS011;4322;51.104;-4.162;2023-02-17T04:32:40;12.83;;;12.23;;
8568;SDS011;4322;51.104;-4.162;2023-02-17T04:35:08;12.27;;;11.67;;
8568;SDS011;4322;51.104;-4.162;2023-02-17T04:37:36;11.40;;;10.83;;
8568;SDS011;4322;51.104;-4.162;2023-02-17T04:40:04;11.43;;;10.87;;
8568;SDS011;4322;51.104;-4.162;2023-02-17T04:42:35;10.40;;;9.90;;
8568;SDS011;4322;51.104;-4.162;2023-02-17T04:45:04;11.03;;;10.53;;
8568;SDS011;4322;51.104;-4.162;2023-02-17T04:47:33;11.47;;;10.87;;
8568;SDS011;4322;51.104;-4.162;2023-02-17T04:50:01;11.00;;;10.50;;
8568;SDS011;4322;51.104;-4.162;2023-02-17T04:52:29;10.77;;;10.27;;
8568;SDS011;4322;51.104;-4.162;2023-02-17T04:54:57;10.43;;;9.93;;
8568;SDS011;4322;51.104;-4.162;2023-02-17T04:57:24;10.83;;;10.33;;
8568;SDS011;4322;51.104;-4.162;2023-02-17T04:59:52;10.97;;;10.47;;
8568;SDS011;4322;51.104;-4.162;2023-02-17T05:02:20;10.33;;;9.83;;
8568;SDS011;4322;51.104;-4.162;2023-02-17T05:04:49;10.97;;;10.47;;
8568;SDS011;4322;51.104;-4.162;2023-02-17T05:07:17;9.23;;;8.83;;
8568;SDS011;4322;51.104;-4.162;2023-02-17T05:09:45;9.27;;;8.87;;
8568;SDS011;4322;51.104;-4.162;2023-02-17T05:12:12;9.30;;;8.90;;
8568;SDS011;4322;51.104;-4.162;2023-02-17T05:14:40;10.17;;;9.67;;
8568;SDS011;4322;51.104;-4.162;2023-02-17T05:17:08;9.13;;;8.73;;
8568;SDS011;4322;51.104;-4.162;2023-02-17T05:19:39;9.77;;;9.27;;
8568;SDS011;4322;51.104;-4.162;2023-02-17T05:22:08;8.93;;;8.53;;
8568;SDS011;4322;51.104;-4.162;2023-02-17T05:24:36;9.07;;;8.67;;
8568;SDS011;4322;51.104;-4.162;2023-02-17T05:27:04;9.33;;;8.93;;
8568;SDS011;4322;51.104;-4.162;2023-02-17T05:29:32;10.23;;;9.73;;
8568;SDS011;4322;51.104;-4.162;2023-02-17T05:32:00;9.87;;;9.37;;
8568;SDS011;4322;51.104;-4.162;2023-02-17T05:34:28;9.87;;;9.37;;
8568;SDS011;4322;51.104;-4.162;2023-02-17T05:36:57;10.13;;;9.63;;
8568;SDS011;4322;51.104;-4.162;2023-02-17T05:39:26;10.60;;;10.10;;
8568;SDS011;4322;51.104;-4.162;2023-02-17T05:41:54;10.07;;;9.57;;
8568;SDS011;4322;51.104;-4.162;2023-02-17T05:44:22;10.53;;;10.03;;
8568;SDS011;4322;51.104;-4.162;2023-02-17T05:46:50;11.87;;;11.27;;
8568;SDS011;4322;51.104;-4.162;2023-02-17T05:49:17;10.57;;;10.07;;
8568;SDS011;4322;51.104;-4.162;2023-02-17T05:51:45;11.07;;;10.57;;
8568;SDS011;4322;51.104;-4.162;2023-02-17T05:54:13;10.37;;;9.87;;
8568;SDS011;4322;51.104;-4.162;2023-02-17T05:56:42;10.80;;;10.30;;
8568;SDS011;4322;51.104;-4.162;2023-02-17T05:59:10;10.23;;;9.73;;
8568;SDS011;4322;51.104;-4.162;2023-02-17T06:01:38;12.07;;;11.47;;
8568;SDS011;4322;51.104;-4.162;2023-02-17T06:04:06;10.83;;;10.33;;
8568;SDS011;4322;51.104;-4.162;2023-02-17T06:06:33;10.67;;;10.17;;
8568;SDS011;4322;51.104;-4.162;2023-02-17T06:09:01;10.90;;;10.40;;
8568;SDS011;4322;51.104;-4.162;2023-02-17T06:11:29;8.53;;;8.13;;
8568;SDS011;4322;51.104;-4.162;2023-02-17T06:13:58;7.50;;;7.20;;
8568;SDS011;4322;51.104;-4.162;2023-02-17T06:16:26;6.83;;;6.53;;
8568;SDS011;4322;51.104;-4.162;2023-02-17T06:18:54;6.73;;;6.43;;
8568;SDS011;4322;51.104;-4.162;2023-02-17T06:21:22;8.73;;;8.33;;
8568;SDS011;4322;51.104;-4.162;2023-02-17T06:23:50;10.00;;;9.50;;
8568;SDS011;4322;51.104;-4.162;2023-02-17T06:26:18;9.87;;;9.37;;
8568;SDS011;4322;51.104;-4.162;2023-02-17T06:28:46;9.30;;;8.90;;
8568;SDS011;4322;51.104;-4.162;2023-02-17T06:31:15;10.70;;;10.20;;
8568;SDS011;4322;51.104;-4.162;2023-02-17T06:33:43;9.50;;;9.03;;
8568;SDS011;4322;51.104;-4.162;2023-02-17T06:36:11;10.53;;;10.03;;
8568;SDS011;4322;51.104;-4.162;2023-02-17T06:38:39;10.40;;;9.90;;
8568;SDS011;4322;51.104;-4.162;2023-02-17T06:41:07;8.77;;;8.37;;
8568;SDS011;4322;51.104;-4.162;2023-02-17T06:43:34;8.97;;;8.57;;
8568;SDS011;4322;51.104;-4.162;2023-02-17T06:46:02;6.43;;;6.13;;
8568;SDS011;4322;51.104;-4.162;2023-02-17T06:48:32;6.40;;;6.10;;
8568;SDS011;4322;51.104;-4.162;2023-02-17T06:51:00;7.77;;;7.37;;
8568;SDS011;4322;51.104;-4.162;2023-02-17T06:53:28;8.00;;;7.60;;
8568;SDS011;4322;51.104;-4.162;2023-02-17T06:55:55;8.83;;;8.43;;
8568;SDS011;4322;51.104;-4.162;2023-02-17T06:58:23;8.83;;;8.43;;
8568;SDS011;4322;51.104;-4.162;2023-02-17T07:00:51;10.20;;;9.70;;
8568;SDS011;4322;51.104;-4.162;2023-02-17T07:03:19;9.63;;;9.13;;
8568;SDS011;4322;51.104;-4.162;2023-02-17T07:05:50;10.27;;;9.77;;
8568;SDS011;4322;51.104;-4.162;2023-02-17T07:08:21;10.10;;;9.60;;
8568;SDS011;4322;51.104;-4.162;2023-02-17T07:10:49;10.83;;;10.33;;
8568;SDS011;4322;51.104;-4.162;2023-02-17T07:13:17;10.27;;;9.77;;
8568;SDS011;4322;51.104;-4.162;2023-02-17T07:15:45;12.70;;;12.00;;
8568;SDS011;4322;51.104;-4.162;2023-02-17T07:18:12;11.50;;;10.90;;
8568;SDS011;4322;51.104;-4.162;2023-02-17T07:20:44;10.40;;;9.90;;
8568;SDS011;4322;51.104;-4.162;2023-02-17T07:23:15;10.60;;;10.10;;
8568;SDS011;4322;51.104;-4.162;2023-02-17T07:25:43;10.93;;;10.43;;
8568;SDS011;4322;51.104;-4.162;2023-02-17T07:28:10;10.50;;;10.00;;
8568;SDS011;4322;51.104;-4.162;2023-02-17T07:30:38;10.70;;;10.20;;
8568;SDS011;4322;51.104;-4.162;2023-02-17T07:33:06;11.70;;;11.10;;
8568;SDS011;4322;51.104;-4.162;2023-02-17T07:35:34;8.73;;;8.33;;
8568;SDS011;4322;51.104;-4.162;2023-02-17T07:38:10;6.57;;;6.27;;
8568;SDS011;4322;51.104;-4.162;2023-02-17T07:40:39;7.20;;;6.90;;
8568;SDS011;4322;51.104;-4.162;2023-02-17T07:43:07;6.23;;;5.93;;
8568;SDS011;4322;51.104;-4.162;2023-02-17T07:45:35;5.63;;;5.43;;
8568;SDS011;4322;51.104;-4.162;2023-02-17T07:48:03;5.10;;;4.90;;
8568;SDS011;4322;51.104;-4.162;2023-02-17T07:50:31;5.60;;;5.40;;
8568;SDS011;4322;51.104;-4.162;2023-02-17T07:52:59;8.00;;;7.60;;
8568;SDS011;4322;51.104;-4.162;2023-02-17T07:55:32;7.27;;;6.97;;
8568;SDS011;4322;51.104;-4.162;2023-02-17T07:58:01;6.70;;;6.40;;
8568;SDS011;4322;51.104;-4.162;2023-02-17T08:00:29;6.00;;;5.70;;
8568;SDS011;4322;51.104;-4.162;2023-02-17T08:02:57;6.93;;;6.63;;
8568;SDS011;4322;51.104;-4.162;2023-02-17T08:05:25;5.43;;;5.23;;
8568;SDS011;4322;51.104;-4.162;2023-02-17T08:07:53;6.87;;;6.57;;
8568;SDS011;4322;51.104;-4.162;2023-02-17T08:10:35;6.30;;;6.00;;
8568;SDS011;4322;51.104;-4.162;2023-02-17T08:13:27;5.50;;;5.30;;
8568;SDS011;4322;51.104;-4.162;2023-02-17T08:15:55;6.23;;;5.93;;
8568;SDS011;4322;51.104;-4.162;2023-02-17T08:18:24;14.90;;;14.10;;
8568;SDS011;4322;51.104;-4.162;2023-02-17T08:20:55;14.00;;;13.30;;
8568;SDS011;4322;51.104;-4.162;2023-02-17T08:23:23;15.37;;;14.57;;
8568;SDS011;4322;51.104;-4.162;2023-02-17T08:25:51;15.53;;;14.73;;
8568;SDS011;4322;51.104;-4.162;2023-02-17T08:28:19;15.00;;;14.20;;
8568;SDS011;4322;51.104;-4.162;2023-02-17T08:30:48;16.03;;;15.23;;
8568;SDS011;4322;51.104;-4.162;2023-02-17T08:33:18;14.70;;;13.90;;
8568;SDS011;4322;51.104;-4.162;2023-02-17T08:35:46;14.23;;;13.53;;
8568;SDS011;4322;51.104;-4.162;2023-02-17T08:38:14;14.33;;;13.63;;
8568;SDS011;4322;51.104;-4.162;2023-02-17T08:40:42;14.70;;;13.90;;
8568;SDS011;4322;51.104;-4.162;2023-02-17T08:43:10;14.10;;;13.40;;
8568;SDS011;4322;51.104;-4.162;2023-02-17T08:45:41;13.80;;;13.10;;
8568;SDS011;4322;51.104;-4.162;2023-02-17T08:48:10;13.90;;;13.20;;
8568;SDS011;4322;51.104;-4.162;2023-02-17T08:50:38;13.67;;;12.97;;
8568;SDS011;4322;51.104;-4.162;2023-02-17T08:53:05;13.60;;;12.90;;
8568;SDS011;4322;51.104;-4.162;2023-02-17T08:55:34;13.30;;;12.60;;
8568;SDS011;4322;51.104;-4.162;2023-02-17T08:58:14;13.63;;;12.93;;
8568;SDS011;4322;51.104;-4.162;2023-02-17T09:00:42;12.50;;;11.90;;
8568;SDS011;4322;51.104;-4.162;2023-02-17T09:03:11;13.17;;;12.47;;
8568;SDS011;4322;51.104;-4.162;2023-02-17T09:05:39;12.33;;;11.73;;
8568;SDS011;4322;51.104;-4.162;2023-02-17T09:08:07;12.53;;;11.93;;
8568;SDS011;4322;51.104;-4.162;2023-02-17T09:10:36;12.20;;;11.60;;
8568;SDS011;4322;51.104;-4.162;2023-02-17T09:13:04;13.13;;;12.43;;
8568;SDS011;4322;51.104;-4.162;2023-02-17T09:15:32;13.17;;;12.47;;
8568;SDS011;4322;51.104;-4.162;2023-02-17T09:17:59;11.73;;;11.13;;
8568;SDS011;4322;51.104;-4.162;2023-02-17T09:20:29;12.00;;;11.40;;
8568;SDS011;4322;51.104;-4.162;2023-02-17T09:22:56;13.90;;;13.20;;
8568;SDS011;4322;51.104;-4.162;2023-02-17T09:25:27;12.90;;;12.20;;
8568;SDS011;4322;51.104;-4.162;2023-02-17T09:27:55;12.43;;;11.83;;
8568;SDS011;4322;51.104;-4.162;2023-02-17T09:30:25;10.93;;;10.43;;
8568;SDS011;4322;51.104;-4.162;2023-02-17T09:32:53;12.07;;;11.47;;
8568;SDS011;4322;51.104;-4.162;2023-02-17T09:35:21;10.80;;;10.30;;
8568;SDS011;4322;51.104;-4.162;2023-02-17T09:37:50;11.20;;;10.63;;
8568;SDS011;4322;51.104;-4.162;2023-02-17T09:40:19;10.40;;;9.90;;
8568;SDS011;4322;51.104;-4.162;2023-02-17T09:42:49;10.30;;;9.80;;
8568;SDS011;4322;51.104;-4.162;2023-02-17T09:45:18;9.70;;;9.20;;
8568;SDS011;4322;51.104;-4.162;2023-02-17T09:47:48;10.07;;;9.57;;
8568;SDS011;4322;51.104;-4.162;2023-02-17T09:50:17;10.10;;;9.60;;
8568;SDS011;4322;51.104;-4.162;2023-02-17T09:52:49;10.00;;;9.50;;
8568;SDS011;4322;51.104;-4.162;2023-02-17T09:55:21;10.30;;;9.80;;
8568;SDS011;4322;51.104;-4.162;2023-02-17T09:57:52;10.47;;;9.97;;
8568;SDS011;4322;51.104;-4.162;2023-02-17T10:00:23;10.43;;;9.93;;
8568;SDS011;4322;51.104;-4.162;2023-02-17T10:02:54;11.57;;;10.97;;
8568;SDS011;4322;51.104;-4.162;2023-02-17T10:05:25;10.70;;;10.20;;
8568;SDS011;4322;51.104;-4.162;2023-02-17T10:07:55;10.30;;;9.80;;
8568;SDS011;4322;51.104;-4.162;2023-02-17T10:10:26;10.87;;;10.37;;
8568;SDS011;4322;51.104;-4.162;2023-02-17T10:12:55;11.07;;;10.57;;
8568;SDS011;4322;51.104;-4.162;2023-02-17T10:15:25;10.60;;;10.10;;
8568;SDS011;4322;51.104;-4.162;2023-02-17T10:17:55;10.70;;;10.20;;
8568;SDS011;4322;51.104;-4.162;2023-02-17T10:20:24;11.10;;;10.53;;
8568;SDS011;4322;51.104;-4.162;2023-02-17T10:22:56;10.57;;;10.07;;
8568;SDS011;4322;51.104;-4.162;2023-02-17T10:25:32;10.27;;;9.77;;
8568;SDS011;4322;51.104;-4.162;2023-02-17T10:28:08;10.17;;;9.67;;
8568;SDS011;4322;51.104;-4.162;2023-02-17T10:30:38;10.43;;;9.93;;
8568;SDS011;4322;51.104;-4.162;2023-02-17T10:33:11;10.37;;;9.87;;
8568;SDS011;4322;51.104;-4.162;2023-02-17T10:35:50;9.70;;;9.20;;
8568;SDS011;4322;51.104;-4.162;2023-02-17T10:38:25;10.10;;;9.60;;
8568;SDS011;4322;51.104;-4.162;2023-02-17T10:40:59;9.40;;;8.97;;
8568;SDS011;4322;51.104;-4.162;2023-02-17T10:43:29;10.77;;;10.27;;
8568;SDS011;4322;51.104;-4.162;2023-02-17T10:45:58;10.87;;;10.37;;
8568;SDS011;4322;51.104;-4.162;2023-02-17T10:48:27;10.40;;;9.90;;
8568;SDS011;4322;51.104;-4.162;2023-02-17T10:50:59;9.87;;;9.37;;
8568;SDS011;4322;51.104;-4.162;2023-02-17T10:53:29;12.80;;;12.10;;
8568;SDS011;4322;51.104;-4.162;2023-02-17T10:56:00;12.80;;;12.10;;
8568;SDS011;4322;51.104;-4.162;2023-02-17T10:58:35;10.70;;;10.20;;
8568;SDS011;4322;51.104;-4.162;2023-02-17T11:01:03;11.83;;;11.23;;
8568;SDS011;4322;51.104;-4.162;2023-02-17T11:03:32;12.00;;;11.40;;
8568;SDS011;4322;51.104;-4.162;2023-02-17T11:06:02;11.03;;;10.53;;
8568;SDS011;4322;51.104;-4.162;2023-02-17T11:08:35;10.37;;;9.87;;
8568;SDS011;4322;51.104;-4.162;2023-02-17T11:11:05;11.50;;;10.90;;
8568;SDS011;4322;51.104;-4.162;2023-02-17T11:13:37;11.33;;;10.73;;
8568;SDS011;4322;51.104;-4.162;2023-02-17T11:16:05;11.30;;;10.70;;
8568;SDS011;4322;51.104;-4.162;2023-02-17T11:18:34;11.40;;;10.80;;
8568;SDS011;4322;51.104;-4.162;2023-02-17T11:21:04;11.17;;;10.60;;
8568;SDS011;4322;51.104;-4.162;2023-02-17T11:23:33;12.43;;;11.83;;
8568;SDS011;4322;51.104;-4.162;2023-02-17T11:26:02;10.97;;;10.47;;
8568;SDS011;4322;51.104;-4.162;2023-02-17T11:28:35;11.23;;;10.67;;
8568;SDS011;4322;51.104;-4.162;2023-02-17T11:31:03;10.67;;;10.17;;
8568;SDS011;4322;51.104;-4.162;2023-02-17T11:33:34;11.00;;;10.50;;
8568;SDS011;4322;51.104;-4.162;2023-02-17T11:36:03;11.77;;;11.17;;
8568;SDS011;4322;51.104;-4.162;2023-02-17T11:38:40;10.73;;;10.23;;
8568;SDS011;4322;51.104;-4.162;2023-02-17T11:41:08;11.30;;;10.70;;
8568;SDS011;4322;51.104;-4.162;2023-02-17T11:43:37;11.53;;;10.93;;
8568;SDS011;4322;51.104;-4.162;2023-02-17T11:46:18;11.00;;;10.50;;
8568;SDS011;4322;51.104;-4.162;2023-02-17T11:48:51;10.83;;;10.33;;
8568;SDS011;4322;51.104;-4.162;2023-02-17T11:51:24;11.37;;;10.77;;
8568;SDS011;4322;51.104;-4.162;2023-02-17T11:53:58;10.80;;;10.30;;
8568;SDS011;4322;51.104;-4.162;2023-02-17T11:56:28;11.40;;;10.80;;
8568;SDS011;4322;51.104;-4.162;2023-02-17T11:59:06;11.10;;;10.60;;
8568;SDS011;4322;51.104;-4.162;2023-02-17T12:01:42;11.40;;;10.80;;
8568;SDS011;4322;51.104;-4.162;2023-02-17T12:04:20;10.60;;;10.10;;
8568;SDS011;4322;51.104;-4.162;2023-02-17T12:06:52;10.40;;;9.90;;
8568;SDS011;4322;51.104;-4.162;2023-02-17T12:09:25;10.07;;;9.57;;
8568;SDS011;4322;51.104;-4.162;2023-02-17T12:11:57;10.13;;;9.63;;
8568;SDS011;4322;51.104;-4.162;2023-02-17T12:17:17;10.77;;;10.27;;
8568;SDS011;4322;51.104;-4.162;2023-02-17T12:19:50;10.73;;;10.23;;
8568;SDS011;4322;51.104;-4.162;2023-02-17T12:22:23;10.80;;;10.30;;
8568;SDS011;4322;51.104;-4.162;2023-02-17T12:25:01;10.90;;;10.40;;
8568;SDS011;4322;51.104;-4.162;2023-02-17T12:27:37;10.30;;;9.80;;
8568;SDS011;4322;51.104;-4.162;2023-02-17T12:30:16;11.07;;;10.53;;
8568;SDS011;4322;51.104;-4.162;2023-02-17T12:32:51;11.10;;;10.57;;
8568;SDS011;4322;51.104;-4.162;2023-02-17T12:35:22;11.67;;;11.07;;
8568;SDS011;4322;51.104;-4.162;2023-02-17T12:37:51;11.33;;;10.73;;
8568;SDS011;4322;51.104;-4.162;2023-02-17T12:40:27;11.77;;;11.17;;
8568;SDS011;4322;51.104;-4.162;2023-02-17T12:42:57;11.77;;;11.17;;
8568;SDS011;4322;51.104;-4.162;2023-02-17T12:45:29;12.10;;;11.50;;
8568;SDS011;4322;51.104;-4.162;2023-02-17T12:48:01;11.53;;;10.93;;
8568;SDS011;4322;51.104;-4.162;2023-02-17T12:50:31;11.40;;;10.80;;
8568;SDS011;4322;51.104;-4.162;2023-02-17T12:53:00;10.67;;;10.17;;
8568;SDS011;4322;51.104;-4.162;2023-02-17T12:55:31;11.67;;;11.07;;
8568;SDS011;4322;51.104;-4.162;2023-02-17T12:58:03;10.90;;;10.40;;
8568;SDS011;4322;51.104;-4.162;2023-02-17T13:00:35;11.53;;;10.93;;
8568;SDS011;4322;51.104;-4.162;2023-02-17T13:03:06;10.87;;;10.37;;
8568;SDS011;4322;51.104;-4.162;2023-02-17T13:05:36;11.30;;;10.70;;
8568;SDS011;4322;51.104;-4.162;2023-02-17T13:08:06;11.50;;;10.90;;
8568;SDS011;4322;51.104;-4.162;2023-02-17T13:10:37;11.47;;;10.87;;
8568;SDS011;4322;51.104;-4.162;2023-02-17T13:13:06;11.40;;;10.80;;
8568;SDS011;4322;51.104;-4.162;2023-02-17T13:15:37;11.87;;;11.27;;
8568;SDS011;4322;51.104;-4.162;2023-02-17T13:18:09;12.00;;;11.40;;
8568;SDS011;4322;51.104;-4.162;2023-02-17T13:20:39;12.47;;;11.87;;
8568;SDS011;4322;51.104;-4.162;2023-02-17T13:23:11;12.13;;;11.53;;
8568;SDS011;4322;51.104;-4.162;2023-02-17T13:25:59;11.50;;;10.90;;
8568;SDS011;4322;51.104;-4.162;2023-02-17T13:28:31;11.80;;;11.20;;
8568;SDS011;4322;51.104;-4.162;2023-02-17T13:31:07;11.23;;;10.63;;
8568;SDS011;4322;51.104;-4.162;2023-02-17T13:33:43;10.73;;;10.23;;
8568;SDS011;4322;51.104;-4.162;2023-02-17T13:36:12;13.43;;;12.73;;
8568;SDS011;4322;51.104;-4.162;2023-02-17T13:38:40;12.53;;;11.93;;
8568;SDS011;4322;51.104;-4.162;2023-02-17T13:41:20;11.93;;;11.33;;
8568;SDS011;4322;51.104;-4.162;2023-02-17T13:43:50;13.37;;;12.67;;
8568;SDS011;4322;51.104;-4.162;2023-02-17T13:46:19;11.40;;;10.80;;
8568;SDS011;4322;51.104;-4.162;2023-02-17T13:49:04;11.77;;;11.17;;
8568;SDS011;4322;51.104;-4.162;2023-02-17T13:51:34;11.60;;;11.00;;
8568;SDS011;4322;51.104;-4.162;2023-02-17T13:54:07;11.50;;;10.90;;
8568;SDS011;4322;51.104;-4.162;2023-02-17T13:56:35;10.70;;;10.20;;
8568;SDS011;4322;51.104;-4.162;2023-02-17T13:59:07;12.13;;;11.53;;
8568;SDS011;4322;51.104;-4.162;2023-02-17T14:01:36;12.33;;;11.73;;
8568;SDS011;4322;51.104;-4.162;2023-02-17T14:04:14;12.60;;;12.00;;
8568;SDS011;4322;51.104;-4.162;2023-02-17T14:06:43;12.63;;;12.03;;
8568;SDS011;4322;51.104;-4.162;2023-02-17T14:09:12;11.77;;;11.17;;
8568;SDS011;4322;51.104;-4.162;2023-02-17T14:11:41;12.33;;;11.73;;
8568;SDS011;4322;51.104;-4.162;2023-02-17T14:14:12;12.77;;;12.17;;
8568;SDS011;4322;51.104;-4.162;2023-02-17T14:16:43;12.50;;;11.90;;
8568;SDS011;4322;51.104;-4.162;2023-02-17T14:19:13;13.13;;;12.43;;
8568;SDS011;4322;51.104;-4.162;2023-02-17T14:21:42;11.77;;;11.17;;
8568;SDS011;4322;51.104;-4.162;2023-02-17T14:24:23;13.13;;;12.43;;
8568;SDS011;4322;51.104;-4.162;2023-02-17T14:26:54;11.77;;;11.17;;
8568;SDS011;4322;51.104;-4.162;2023-02-17T14:29:22;10.97;;;10.47;;
8568;SDS011;4322;51.104;-4.162;2023-02-17T14:31:51;11.43;;;10.83;;
8568;SDS011;4322;51.104;-4.162;2023-02-17T14:34:25;11.70;;;11.10;;
8568;SDS011;4322;51.104;-4.162;2023-02-17T14:36:53;10.10;;;9.60;;
8568;SDS011;4322;51.104;-4.162;2023-02-17T14:39:21;13.33;;;12.63;;
8568;SDS011;4322;51.104;-4.162;2023-02-17T14:41:49;13.30;;;12.60;;
8568;SDS011;4322;51.104;-4.162;2023-02-17T14:44:17;12.77;;;12.10;;
8568;SDS011;4322;51.104;-4.162;2023-02-17T14:46:45;12.30;;;11.70;;
8568;SDS011;4322;51.104;-4.162;2023-02-17T14:49:13;12.33;;;11.73;;
8568;SDS011;4322;51.104;-4.162;2023-02-17T14:51:42;13.40;;;12.70;;
8568;SDS011;4322;51.104;-4.162;2023-02-17T14:54:11;12.47;;;11.87;;
8568;SDS011;4322;51.104;-4.162;2023-02-17T14:56:43;13.47;;;12.77;;
8568;SDS011;4322;51.104;-4.162;2023-02-17T14:59:13;12.60;;;11.97;;
8568;SDS011;4322;51.104;-4.162;2023-02-17T15:01:41;12.00;;;11.40;;
8568;SDS011;4322;51.104;-4.162;2023-02-17T15:04:09;12.70;;;12.00;;